sensor_id;sensor_type;location;lat;lon;timestamp;pressure;altitude;pressure_sealevel;temperature;humidity
55604;BME280;41468;48.838;9.330;2022-10-26T00:01:59;98331.00;;;13.22;89.37
55604;BME280;41468;48.838;9.330;2022-10-26T00:04:31;98332.94;;;13.14;89.42
55604;BME280;41468;48.838;9.330;2022-10-26T00:07:01;98329.41;;;13.17;90.16
55604;BME280;41468;48.838;9.330;2022-10-26T00:09:31;98327.03;;;13.01;91.01
55604;BME280;41468;48.838;9.330;2022-10-26T00:12:00;98327.84;;;13.09;90.65
55604;BME280;41468;48.838;9.330;2022-10-26T00:14:30;98331.75;;;13.08;89.29
55604;BME280;41468;48.838;9.330;2022-10-26T00:17:00;98326.25;;;12.97;89.67
55604;BME280;41468;48.838;9.330;2022-10-26T00:19:34;98332.53;;;13.15;89.54
55604;BME280;41468;48.838;9.330;2022-10-26T00:22:04;98339.22;;;13.14;88.85
55604;BME280;41468;48.838;9.330;2022-10-26T00:24:33;98339.59;;;13.09;89.60
55604;BME280;41468;48.838;9.330;2022-10-26T00:27:03;98339.59;;;13.13;89.55
55604;BME280;41468;48.838;9.330;2022-10-26T00:29:33;98334.13;;;13.17;89.11
55604;BME280;41468;48.838;9.330;2022-10-26T00:32:02;98347.06;;;13.16;89.40
55604;BME280;41468;48.838;9.330;2022-10-26T00:34:35;98342.72;;;13.01;91.08
55604;BME280;41468;48.838;9.330;2022-10-26T00:37:04;98339.59;;;13.09;90.44
55604;BME280;41468;48.838;9.330;2022-10-26T00:39:35;98338.81;;;13.12;90.08
55604;BME280;41468;48.838;9.330;2022-10-26T00:42:05;98331.75;;;13.08;89.61
55604;BME280;41468;48.838;9.330;2022-10-26T00:44:59;98333.34;;;13.16;89.41
55604;BME280;41468;48.838;9.330;2022-10-26T00:47:37;98329.78;;;13.01;89.92
55604;BME280;41468;48.838;9.330;2022-10-26T00:50:15;98325.88;;;13.06;90.11
55604;BME280;41468;48.838;9.330;2022-10-26T00:52:45;98322.31;;;12.98;90.10
55604;BME280;41468;48.838;9.330;2022-10-26T00:55:17;98338.03;;;13.15;89.78
55604;BME280;41468;48.838;9.330;2022-10-26T00:57:50;98341.94;;;13.07;89.29
55604;BME280;41468;48.838;9.330;2022-10-26T01:00:21;98337.25;;;13.01;90.00
55604;BME280;41468;48.838;9.330;2022-10-26T01:02:51;98338.03;;;13.08;89.82
55604;BME280;41468;48.838;9.330;2022-10-26T01:05:26;98342.34;;;13.17;89.57
55604;BME280;41468;48.838;9.330;2022-10-26T01:07:56;98334.91;;;13.21;89.61
55604;BME280;41468;48.838;9.330;2022-10-26T01:10:26;98330.19;;;13.18;89.31
55604;BME280;41468;48.838;9.330;2022-10-26T01:12:57;98338.81;;;13.12;90.18
55604;BME280;41468;48.838;9.330;2022-10-26T01:15:36;98324.69;;;13.07;91.02
55604;BME280;41468;48.838;9.330;2022-10-26T01:18:14;98336.06;;;13.12;90.86
55604;BME280;41468;48.838;9.330;2022-10-26T01:21:14;98340.34;;;12.99;90.93
55604;BME280;41468;48.838;9.330;2022-10-26T01:24:03;98338.03;;;12.98;91.79
55604;BME280;41468;48.838;9.330;2022-10-26T01:26:47;98332.50;;;12.94;92.02
55604;BME280;41468;48.838;9.330;2022-10-26T01:29:47;98323.88;;;12.99;91.88
55604;BME280;41468;48.838;9.330;2022-10-26T01:32:22;98317.66;;;13.17;91.34
55604;BME280;41468;48.838;9.330;2022-10-26T01:35:00;98316.06;;;13.08;90.77
55604;BME280;41468;48.838;9.330;2022-10-26T01:37:35;98314.50;;;13.04;91.49
55604;BME280;41468;48.838;9.330;2022-10-26T01:40:10;98315.69;;;13.13;92.08
55604;BME280;41468;48.838;9.330;2022-10-26T01:42:48;98307.81;;;12.98;92.17
55604;BME280;41468;48.838;9.330;2022-10-26T01:45:20;98298.41;;;13.13;92.36
55604;BME280;41468;48.838;9.330;2022-10-26T01:47:54;98300.38;;;13.20;91.81
55604;BME280;41468;48.838;9.330;2022-10-26T01:50:25;98308.25;;;13.10;92.08
55604;BME280;41468;48.838;9.330;2022-10-26T01:52:55;98293.31;;;12.97;92.70
55604;BME280;41468;48.838;9.330;2022-10-26T01:55:44;98285.06;;;13.01;93.03
55604;BME280;41468;48.838;9.330;2022-10-26T01:58:31;98307.84;;;13.19;93.00
55604;BME280;41468;48.838;9.330;2022-10-26T02:01:13;98312.94;;;13.21;93.71
55604;BME280;41468;48.838;9.330;2022-10-26T02:03:50;98291.75;;;12.89;95.25
55604;BME280;41468;48.838;9.330;2022-10-26T02:06:29;98300.38;;;13.05;96.00
55604;BME280;41468;48.838;9.330;2022-10-26T02:09:10;98303.13;;;12.95;96.25
55604;BME280;41468;48.838;9.330;2022-10-26T02:11:47;98295.25;;;12.89;97.09
55604;BME280;41468;48.838;9.330;2022-10-26T02:14:21;98294.06;;;12.80;96.76
55604;BME280;41468;48.838;9.330;2022-10-26T02:16:55;98285.81;;;12.65;97.06
55604;BME280;41468;48.838;9.330;2022-10-26T02:19:37;98272.88;;;12.69;97.37
55604;BME280;41468;48.838;9.330;2022-10-26T02:22:13;98272.50;;;12.82;97.16
55604;BME280;41468;48.838;9.330;2022-10-26T02:24:46;98269.00;;;12.99;95.31
55604;BME280;41468;48.838;9.330;2022-10-26T02:27:20;98272.50;;;12.96;95.64
55604;BME280;41468;48.838;9.330;2022-10-26T02:29:51;98268.19;;;13.02;94.07
55604;BME280;41468;48.838;9.330;2022-10-26T02:32:25;98270.16;;;12.98;94.16
55604;BME280;41468;48.838;9.330;2022-10-26T02:35:01;98288.22;;;12.96;95.52
55604;BME280;41468;48.838;9.330;2022-10-26T02:37:32;98283.88;;;12.77;95.92
55604;BME280;41468;48.838;9.330;2022-10-26T02:40:06;98298.78;;;12.76;96.31
55604;BME280;41468;48.838;9.330;2022-10-26T02:42:38;98307.78;;;12.80;97.05
55604;BME280;41468;48.838;9.330;2022-10-26T02:45:13;98308.94;;;12.68;97.26
55604;BME280;41468;48.838;9.330;2022-10-26T02:47:45;98313.66;;;12.67;96.80
55604;BME280;41468;48.838;9.330;2022-10-26T02:50:18;98316.38;;;12.60;97.43
55604;BME280;41468;48.838;9.330;2022-10-26T02:52:53;98325.03;;;12.77;96.86
55604;BME280;41468;48.838;9.330;2022-10-26T02:55:27;98322.66;;;12.75;97.90
55604;BME280;41468;48.838;9.330;2022-10-26T02:58:01;98311.72;;;12.79;97.77
55604;BME280;41468;48.838;9.330;2022-10-26T03:00:32;98310.13;;;12.78;97.29
55604;BME280;41468;48.838;9.330;2022-10-26T03:03:03;98299.50;;;12.62;97.99
55604;BME280;41468;48.838;9.330;2022-10-26T03:05:40;98314.03;;;12.69;97.96
55604;BME280;41468;48.838;9.330;2022-10-26T03:08:10;98317.56;;;12.81;97.42
55604;BME280;41468;48.838;9.330;2022-10-26T03:10:42;98318.41;;;12.99;96.78
55604;BME280;41468;48.838;9.330;2022-10-26T03:13:12;98313.25;;;12.73;98.06
55604;BME280;41468;48.838;9.330;2022-10-26T03:15:42;98318.72;;;12.73;98.05
55604;BME280;41468;48.838;9.330;2022-10-26T03:18:12;98321.47;;;12.65;98.44
55604;BME280;41468;48.838;9.330;2022-10-26T03:20:45;98319.84;;;12.50;99.26
55604;BME280;41468;48.838;9.330;2022-10-26T03:23:15;98330.13;;;12.67;98.78
55604;BME280;41468;48.838;9.330;2022-10-26T03:25:44;98333.22;;;12.66;98.66
55604;BME280;41468;48.838;9.330;2022-10-26T03:28:14;98339.13;;;12.75;98.44
55604;BME280;41468;48.838;9.330;2022-10-26T03:30:44;98346.97;;;12.73;98.74
55604;BME280;41468;48.838;9.330;2022-10-26T03:33:13;98344.63;;;12.72;99.47
55604;BME280;41468;48.838;9.330;2022-10-26T03:35:46;98342.25;;;12.66;100.00
55604;BME280;41468;48.838;9.330;2022-10-26T03:38:22;98349.34;;;12.82;99.02
55604;BME280;41468;48.838;9.330;2022-10-26T03:40:51;98355.22;;;12.77;99.72
55604;BME280;41468;48.838;9.330;2022-10-26T03:43:21;98355.97;;;12.63;100.00
55604;BME280;41468;48.838;9.330;2022-10-26T03:45:51;98355.91;;;12.56;100.00
55604;BME280;41468;48.838;9.330;2022-10-26T03:48:20;98360.31;;;12.85;99.81
55604;BME280;41468;48.838;9.330;2022-10-26T03:50:56;98379.19;;;12.98;98.41
55604;BME280;41468;48.838;9.330;2022-10-26T03:53:26;98377.56;;;12.79;99.61
55604;BME280;41468;48.838;9.330;2022-10-26T03:55:56;98366.22;;;12.84;99.02
55604;BME280;41468;48.838;9.330;2022-10-26T03:58:25;98368.56;;;12.82;98.55
55604;BME280;41468;48.838;9.330;2022-10-26T04:00:55;98363.84;;;12.79;98.28
55604;BME280;41468;48.838;9.330;2022-10-26T04:03:25;98363.84;;;12.79;97.76
55604;BME280;41468;48.838;9.330;2022-10-26T04:05:59;98365.75;;;12.57;99.39
55604;BME280;41468;48.838;9.330;2022-10-26T04:08:29;98363.81;;;12.68;99.27
55604;BME280;41468;48.838;9.330;2022-10-26T04:10:58;98344.97;;;12.66;99.26
55604;BME280;41468;48.838;9.330;2022-10-26T04:13:30;98333.25;;;12.77;98.38
55604;BME280;41468;48.838;9.330;2022-10-26T04:16:00;98341.47;;;12.62;99.85
55604;BME280;41468;48.838;9.330;2022-10-26T04:18:30;98329.31;;;12.60;99.88
55604;BME280;41468;48.838;9.330;2022-10-26T04:21:02;98323.81;;;12.63;99.97
55604;BME280;41468;48.838;9.330;2022-10-26T04:23:32;98326.97;;;12.73;99.59
55604;BME280;41468;48.838;9.330;2022-10-26T04:26:03;98323.81;;;12.67;99.22
55604;BME280;41468;48.838;9.330;2022-10-26T04:28:33;98321.47;;;12.69;100.00
55604;BME280;41468;48.838;9.330;2022-10-26T04:31:03;98316.41;;;12.75;99.66
55604;BME280;41468;48.838;9.330;2022-10-26T04:33:33;98313.66;;;12.75;98.56
55604;BME280;41468;48.838;9.330;2022-10-26T04:36:06;98317.56;;;12.81;97.96
55604;BME280;41468;48.838;9.330;2022-10-26T04:38:36;98319.19;;;12.89;96.80
55604;BME280;41468;48.838;9.330;2022-10-26T04:41:06;98327.41;;;12.92;96.47
55604;BME280;41468;48.838;9.330;2022-10-26T04:43:35;98332.16;;;13.06;95.76
55604;BME280;41468;48.838;9.330;2022-10-26T04:46:05;98327.44;;;13.14;95.83
55604;BME280;41468;48.838;9.330;2022-10-26T04:48:38;98323.91;;;13.06;96.17
55604;BME280;41468;48.838;9.330;2022-10-26T04:51:11;98334.09;;;13.09;96.43
55604;BME280;41468;48.838;9.330;2022-10-26T04:53:40;98339.19;;;12.97;96.46
55604;BME280;41468;48.838;9.330;2022-10-26T04:56:10;98318.38;;;12.85;97.91
55604;BME280;41468;48.838;9.330;2022-10-26T04:58:40;98330.59;;;13.05;96.80
55604;BME280;41468;48.838;9.330;2022-10-26T05:01:09;98334.09;;;13.02;95.92
55604;BME280;41468;48.838;9.330;2022-10-26T05:03:39;98319.19;;;12.96;96.55
55604;BME280;41468;48.838;9.330;2022-10-26T05:06:12;98310.16;;;12.99;97.01
55604;BME280;41468;48.838;9.330;2022-10-26T05:08:41;98317.22;;;12.93;97.80
55604;BME280;41468;48.838;9.330;2022-10-26T05:11:11;98318.03;;;12.97;97.33
55604;BME280;41468;48.838;9.330;2022-10-26T05:13:41;98309.78;;;12.97;97.57
55604;BME280;41468;48.838;9.330;2022-10-26T05:16:10;98325.09;;;13.09;96.44
55604;BME280;41468;48.838;9.330;2022-10-26T05:18:40;98333.31;;;12.98;96.83
55604;BME280;41468;48.838;9.330;2022-10-26T05:21:13;98321.53;;;13.05;96.59
55604;BME280;41468;48.838;9.330;2022-10-26T05:23:48;98332.94;;;13.14;95.82
55604;BME280;41468;48.838;9.330;2022-10-26T05:26:19;98333.72;;;13.14;96.57
55604;BME280;41468;48.838;9.330;2022-10-26T05:28:50;98336.84;;;13.09;96.85
55604;BME280;41468;48.838;9.330;2022-10-26T05:31:20;98338.03;;;13.15;97.07
55604;BME280;41468;48.838;9.330;2022-10-26T05:33:50;98347.06;;;13.09;96.97
55604;BME280;41468;48.838;9.330;2022-10-26T05:36:22;98338.81;;;13.12;96.63
55604;BME280;41468;48.838;9.330;2022-10-26T05:38:52;98347.47;;;13.11;96.79
55604;BME280;41468;48.838;9.330;2022-10-26T05:41:22;98352.91;;;13.07;97.63
55604;BME280;41468;48.838;9.330;2022-10-26T05:43:52;98355.28;;;13.05;98.29
55604;BME280;41468;48.838;9.330;2022-10-26T05:46:22;98356.44;;;13.01;98.00
55604;BME280;41468;48.838;9.330;2022-10-26T05:48:52;98364.72;;;13.08;97.80
55604;BME280;41468;48.838;9.330;2022-10-26T05:51:24;98364.69;;;13.15;96.85
55604;BME280;41468;48.838;9.330;2022-10-26T05:53:54;98365.47;;;13.15;97.52
55604;BME280;41468;48.838;9.330;2022-10-26T05:56:33;98367.06;;;13.24;96.95
55604;BME280;41468;48.838;9.330;2022-10-26T05:59:04;98361.19;;;13.29;96.79
55604;BME280;41468;48.838;9.330;2022-10-26T06:01:49;98371.78;;;13.34;95.44
55604;BME280;41468;48.838;9.330;2022-10-26T06:04:29;98376.50;;;13.37;95.35
55604;BME280;41468;48.838;9.330;2022-10-26T06:07:09;98376.13;;;13.42;94.84
55604;BME280;41468;48.838;9.330;2022-10-26T06:09:41;98375.75;;;13.40;93.18
55604;BME280;41468;48.838;9.330;2022-10-26T06:12:12;98380.06;;;13.48;93.83
55604;BME280;41468;48.838;9.330;2022-10-26T06:14:46;98384.38;;;13.53;92.70
55604;BME280;41468;48.838;9.330;2022-10-26T06:17:40;98387.13;;;13.46;93.53
55604;BME280;41468;48.838;9.330;2022-10-26T06:20:28;98401.25;;;13.51;93.04
55604;BME280;41468;48.838;9.330;2022-10-26T06:23:19;98403.22;;;13.51;93.36
55604;BME280;41468;48.838;9.330;2022-10-26T06:26:00;98409.47;;;13.44;93.88
55604;BME280;41468;48.838;9.330;2022-10-26T06:28:39;98429.09;;;13.39;94.17
55604;BME280;41468;48.838;9.330;2022-10-26T06:31:16;98437.34;;;13.39;94.61
55604;BME280;41468;48.838;9.330;2022-10-26T06:33:46;98434.59;;;13.32;95.04
55604;BME280;41468;48.838;9.330;2022-10-26T06:36:20;98439.34;;;13.53;94.39
55604;BME280;41468;48.838;9.330;2022-10-26T06:39:00;98442.03;;;13.39;95.68
55604;BME280;41468;48.838;9.330;2022-10-26T06:41:32;98447.16;;;13.47;95.57
55604;BME280;41468;48.838;9.330;2022-10-26T06:44:03;98456.59;;;13.43;96.82
55604;BME280;41468;48.838;9.330;2022-10-26T06:46:38;98454.97;;;13.34;97.53
55604;BME280;41468;48.838;9.330;2022-10-26T06:49:16;98449.09;;;13.36;97.95
55604;BME280;41468;48.838;9.330;2022-10-26T06:51:51;98450.28;;;13.35;97.75
55604;BME280;41468;48.838;9.330;2022-10-26T06:54:33;98446.31;;;13.25;98.61
55604;BME280;41468;48.838;9.330;2022-10-26T06:57:10;98447.88;;;13.23;98.75
55604;BME280;41468;48.838;9.330;2022-10-26T06:59:44;98454.94;;;13.20;99.06
55604;BME280;41468;48.838;9.330;2022-10-26T07:02:15;98452.19;;;13.24;98.44
55604;BME280;41468;48.838;9.330;2022-10-26T07:04:46;98458.50;;;13.28;97.80
55604;BME280;41468;48.838;9.330;2022-10-26T07:07:18;98466.75;;;13.42;96.78
55604;BME280;41468;48.838;9.330;2022-10-26T07:09:51;98464.41;;;13.33;97.20
55604;BME280;41468;48.838;9.330;2022-10-26T07:12:21;98464.41;;;13.30;97.32
55604;BME280;41468;48.838;9.330;2022-10-26T07:14:53;98468.34;;;13.43;96.95
55604;BME280;41468;48.838;9.330;2022-10-26T07:17:23;98475.41;;;13.41;97.38
55604;BME280;41468;48.838;9.330;2022-10-26T07:19:54;98476.97;;;13.42;97.55
55604;BME280;41468;48.838;9.330;2022-10-26T07:22:23;98482.09;;;13.50;97.19
55604;BME280;41468;48.838;9.330;2022-10-26T07:24:56;98485.66;;;13.58;97.94
55604;BME280;41468;48.838;9.330;2022-10-26T07:27:28;98495.88;;;13.54;98.72
55604;BME280;41468;48.838;9.330;2022-10-26T07:29:58;98490.34;;;13.43;99.93
55604;BME280;41468;48.838;9.330;2022-10-26T07:32:28;98492.69;;;13.41;100.00
55604;BME280;41468;48.838;9.330;2022-10-26T07:34:58;98488.38;;;13.51;100.00
55604;BME280;41468;48.838;9.330;2022-10-26T07:37:28;98488.78;;;13.46;100.00
55604;BME280;41468;48.838;9.330;2022-10-26T07:40:00;98494.28;;;13.53;100.00
55604;BME280;41468;48.838;9.330;2022-10-26T07:42:32;98493.53;;;13.63;99.55
55604;BME280;41468;48.838;9.330;2022-10-26T07:45:04;98491.94;;;13.55;99.59
55604;BME280;41468;48.838;9.330;2022-10-26T07:47:34;98498.66;;;13.65;98.63
55604;BME280;41468;48.838;9.330;2022-10-26T07:50:04;98499.84;;;13.67;98.49
55604;BME280;41468;48.838;9.330;2022-10-26T07:52:34;98505.31;;;13.71;97.93
55604;BME280;41468;48.838;9.330;2022-10-26T07:55:08;98515.53;;;13.77;98.17
55604;BME280;41468;48.838;9.330;2022-10-26T07:57:38;98514.75;;;13.77;98.18
55604;BME280;41468;48.838;9.330;2022-10-26T08:00:09;98516.34;;;13.78;99.49
55604;BME280;41468;48.838;9.330;2022-10-26T08:02:39;98526.94;;;13.87;97.60
55604;BME280;41468;48.838;9.330;2022-10-26T08:05:09;98522.63;;;13.89;98.81
55604;BME280;41468;48.838;9.330;2022-10-26T08:07:42;98527.34;;;13.89;97.86
55604;BME280;41468;48.838;9.330;2022-10-26T08:10:15;98524.97;;;13.91;98.89
55604;BME280;41468;48.838;9.330;2022-10-26T08:12:44;98525.78;;;13.95;97.20
55604;BME280;41468;48.838;9.330;2022-10-26T08:15:14;98518.69;;;14.01;97.00
55604;BME280;41468;48.838;9.330;2022-10-26T08:17:44;98524.22;;;13.94;97.05
55604;BME280;41468;48.838;9.330;2022-10-26T08:20:14;98516.72;;;14.01;96.81
55604;BME280;41468;48.838;9.330;2022-10-26T08:22:44;98529.72;;;14.12;96.53
55604;BME280;41468;48.838;9.330;2022-10-26T08:25:17;98523.44;;;14.22;96.06
55604;BME280;41468;48.838;9.330;2022-10-26T08:27:47;98521.88;;;14.32;96.15
55604;BME280;41468;48.838;9.330;2022-10-26T08:30:17;98519.09;;;14.28;95.87
55604;BME280;41468;48.838;9.330;2022-10-26T08:32:47;98512.81;;;14.28;94.71
55604;BME280;41468;48.838;9.330;2022-10-26T08:35:17;98515.19;;;14.29;94.61
55604;BME280;41468;48.838;9.330;2022-10-26T08:37:46;98517.94;;;14.40;94.14
55604;BME280;41468;48.838;9.330;2022-10-26T08:40:21;98521.84;;;14.46;93.87
55604;BME280;41468;48.838;9.330;2022-10-26T08:42:56;98523.03;;;14.38;94.95
55604;BME280;41468;48.838;9.330;2022-10-26T08:45:31;98528.13;;;14.36;94.65
55604;BME280;41468;48.838;9.330;2022-10-26T08:48:06;98525.78;;;14.34;94.33
55604;BME280;41468;48.838;9.330;2022-10-26T08:50:42;98527.34;;;14.35;94.60
55604;BME280;41468;48.838;9.330;2022-10-26T08:53:19;98521.03;;;14.42;94.96
55604;BME280;41468;48.838;9.330;2022-10-26T08:55:54;98530.88;;;14.36;95.22
55604;BME280;41468;48.838;9.330;2022-10-26T08:58:27;98535.22;;;14.48;94.38
55604;BME280;41468;48.838;9.330;2022-10-26T09:00:58;98541.47;;;14.44;94.82
55604;BME280;41468;48.838;9.330;2022-10-26T09:03:29;98536.78;;;14.45;95.36
55604;BME280;41468;48.838;9.330;2022-10-26T09:06:19;98543.47;;;14.48;95.92
55604;BME280;41468;48.838;9.330;2022-10-26T09:09:02;98547.78;;;14.49;94.83
55604;BME280;41468;48.838;9.330;2022-10-26T09:11:47;98551.69;;;14.62;94.81
55604;BME280;41468;48.838;9.330;2022-10-26T09:14:34;98555.25;;;14.62;94.50
55604;BME280;41468;48.838;9.330;2022-10-26T09:17:13;98556.78;;;14.63;94.92
55604;BME280;41468;48.838;9.330;2022-10-26T09:20:05;98557.19;;;14.90;93.50
55604;BME280;41468;48.838;9.330;2022-10-26T09:22:45;98569.75;;;15.02;92.54
55604;BME280;41468;48.838;9.330;2022-10-26T09:25:21;98572.41;;;15.31;93.02
55604;BME280;41468;48.838;9.330;2022-10-26T09:27:55;98574.31;;;15.45;90.75
55604;BME280;41468;48.838;9.330;2022-10-26T09:30:27;98576.59;;;15.64;88.69
55604;BME280;41468;48.838;9.330;2022-10-26T09:32:59;98570.16;;;15.92;87.18
55604;BME280;41468;48.838;9.330;2022-10-26T09:35:35;98578.31;;;16.10;86.86
55604;BME280;41468;48.838;9.330;2022-10-26T09:38:17;98586.25;;;16.01;86.11
55604;BME280;41468;48.838;9.330;2022-10-26T09:40:54;98588.81;;;16.30;85.54
55604;BME280;41468;48.838;9.330;2022-10-26T09:43:32;98592.22;;;16.48;84.74
55604;BME280;41468;48.838;9.330;2022-10-26T09:46:13;98597.56;;;16.70;83.57
55604;BME280;41468;48.838;9.330;2022-10-26T09:48:47;98603.59;;;16.54;84.94
55604;BME280;41468;48.838;9.330;2022-10-26T09:51:19;98599.91;;;16.71;84.53
55604;BME280;41468;48.838;9.330;2022-10-26T09:53:49;98603.00;;;16.80;85.20
55604;BME280;41468;48.838;9.330;2022-10-26T09:56:19;98594.66;;;16.87;84.94
55604;BME280;41468;48.838;9.330;2022-10-26T09:58:53;98605.53;;;17.05;83.54
55604;BME280;41468;48.838;9.330;2022-10-26T10:01:28;98600.81;;;17.71;79.14
55604;BME280;41468;48.838;9.330;2022-10-26T10:04:15;98612.91;;;19.13;72.48
55604;BME280;41468;48.838;9.330;2022-10-26T10:06:47;98620.31;;;19.59;70.98
55604;BME280;41468;48.838;9.330;2022-10-26T10:09:18;98612.91;;;19.52;69.54
55604;BME280;41468;48.838;9.330;2022-10-26T10:11:50;98599.31;;;18.24;74.13
55604;BME280;41468;48.838;9.330;2022-10-26T10:14:27;98607.19;;;18.26;74.28
55604;BME280;41468;48.838;9.330;2022-10-26T10:17:06;98613.63;;;18.19;74.96
55604;BME280;41468;48.838;9.330;2022-10-26T10:19:37;98612.47;;;17.89;76.58
55604;BME280;41468;48.838;9.330;2022-10-26T10:22:11;98612.63;;;17.75;78.51
55604;BME280;41468;48.838;9.330;2022-10-26T10:24:42;98613.19;;;17.63;78.80
55604;BME280;41468;48.838;9.330;2022-10-26T10:27:21;98614.34;;;17.62;79.32
55604;BME280;41468;48.838;9.330;2022-10-26T10:29:55;98607.81;;;17.83;78.85
55604;BME280;41468;48.838;9.330;2022-10-26T10:32:31;98611.72;;;17.85;79.23
55604;BME280;41468;48.838;9.330;2022-10-26T10:35:23;98622.47;;;17.80;80.86
55604;BME280;41468;48.838;9.330;2022-10-26T10:37:53;98620.53;;;17.76;82.14
55604;BME280;41468;48.838;9.330;2022-10-26T10:40:24;98623.06;;;17.94;79.05
55604;BME280;41468;48.838;9.330;2022-10-26T10:43:10;98626.84;;;19.29;74.79
55604;BME280;41468;48.838;9.330;2022-10-26T10:45:46;98631.75;;;20.01;70.81
55604;BME280;41468;48.838;9.330;2022-10-26T10:48:19;98632.06;;;20.03;69.48
55604;BME280;41468;48.838;9.330;2022-10-26T10:50:51;98631.13;;;20.62;66.60
55604;BME280;41468;48.838;9.330;2022-10-26T10:53:25;98635.31;;;21.33;65.53
55604;BME280;41468;48.838;9.330;2022-10-26T10:56:06;98621.81;;;21.60;65.24
55604;BME280;41468;48.838;9.330;2022-10-26T10:58:45;98629.59;;;21.07;64.86
55604;BME280;41468;48.838;9.330;2022-10-26T11:01:20;98626.69;;;22.75;61.07
55604;BME280;41468;48.838;9.330;2022-10-26T11:04:07;98629.16;;;25.63;53.75
55604;BME280;41468;48.838;9.330;2022-10-26T11:06:42;98628.38;;;26.57;48.26
55604;BME280;41468;48.838;9.330;2022-10-26T11:09:15;98642.22;;;25.38;49.81
55604;BME280;41468;48.838;9.330;2022-10-26T11:11:49;98633.28;;;24.04;53.14
55604;BME280;41468;48.838;9.330;2022-10-26T11:14:24;98639.44;;;23.45;54.54
55604;BME280;41468;48.838;9.330;2022-10-26T11:17:05;98639.03;;;21.84;59.05
55604;BME280;41468;48.838;9.330;2022-10-26T11:19:41;98644.69;;;21.39;60.68
55604;BME280;41468;48.838;9.330;2022-10-26T11:22:17;98640.44;;;21.34;62.86
55604;BME280;41468;48.838;9.330;2022-10-26T11:24:55;98640.41;;;23.74;56.41
55604;BME280;41468;48.838;9.330;2022-10-26T11:27:32;98644.28;;;24.70;51.84
55604;BME280;41468;48.838;9.330;2022-10-26T11:30:05;98633.13;;;24.29;51.98
55604;BME280;41468;48.838;9.330;2022-10-26T11:32:42;98633.63;;;23.40;55.11
55604;BME280;41468;48.838;9.330;2022-10-26T11:35:17;98632.75;;;22.35;58.29
55604;BME280;41468;48.838;9.330;2022-10-26T11:37:52;98628.78;;;21.81;61.30
55604;BME280;41468;48.838;9.330;2022-10-26T11:40:28;98630.59;;;21.59;62.93
55604;BME280;41468;48.838;9.330;2022-10-26T11:43:09;98634.72;;;22.34;59.68
55604;BME280;41468;48.838;9.330;2022-10-26T11:45:42;98630.25;;;23.89;55.34
55604;BME280;41468;48.838;9.330;2022-10-26T11:48:19;98639.88;;;25.55;51.69
55604;BME280;41468;48.838;9.330;2022-10-26T11:50:54;98638.91;;;27.58;46.18
55604;BME280;41468;48.838;9.330;2022-10-26T11:53:29;98647.03;;;29.21;43.10
55604;BME280;41468;48.838;9.330;2022-10-26T11:56:02;98643.47;;;27.85;43.74
55604;BME280;41468;48.838;9.330;2022-10-26T11:58:33;98654.78;;;26.41;46.12
55604;BME280;41468;48.838;9.330;2022-10-26T12:01:07;98655.34;;;24.83;50.42
55604;BME280;41468;48.838;9.330;2022-10-26T12:03:42;98656.72;;;23.18;55.46
55604;BME280;41468;48.838;9.330;2022-10-26T12:06:17;98659.94;;;22.44;59.75
55604;BME280;41468;48.838;9.330;2022-10-26T12:08:52;98662.44;;;22.00;60.15
55604;BME280;41468;48.838;9.330;2022-10-26T12:11:33;98654.16;;;21.41;62.46
55604;BME280;41468;48.838;9.330;2022-10-26T12:14:13;98658.50;;;21.42;62.15
55604;BME280;41468;48.838;9.330;2022-10-26T12:16:49;98658.31;;;21.49;61.99
55604;BME280;41468;48.838;9.330;2022-10-26T12:19:28;98655.34;;;21.27;62.43
55604;BME280;41468;48.838;9.330;2022-10-26T12:22:00;98656.91;;;20.96;65.55
55604;BME280;41468;48.838;9.330;2022-10-26T12:24:31;98660.66;;;20.73;64.69
55604;BME280;41468;48.838;9.330;2022-10-26T12:27:03;98661.34;;;20.44;66.16
55604;BME280;41468;48.838;9.330;2022-10-26T12:29:36;98671.59;;;20.27;67.32
55604;BME280;41468;48.838;9.330;2022-10-26T12:35:37;98675.78;;;19.99;68.01
55604;BME280;41468;48.838;9.330;2022-10-26T12:38:53;98665.75;;;20.05;69.37
55604;BME280;41468;48.838;9.330;2022-10-26T12:41:24;98682.28;;;20.29;68.31
55604;BME280;41468;48.838;9.330;2022-10-26T12:43:56;98675.25;;;20.44;67.95
55604;BME280;41468;48.838;9.330;2022-10-26T12:46:39;98676.06;;;20.41;67.52
55604;BME280;41468;48.838;9.330;2022-10-26T12:58:37;98680.16;;;20.16;69.00
55604;BME280;41468;48.838;9.330;2022-10-26T13:01:24;98687.63;;;20.19;67.14
55604;BME280;41468;48.838;9.330;2022-10-26T13:04:12;98685.22;;;20.42;66.71
55604;BME280;41468;48.838;9.330;2022-10-26T13:06:57;98696.59;;;20.47;66.88
55604;BME280;41468;48.838;9.330;2022-10-26T13:09:44;98692.59;;;20.48;66.19
55604;BME280;41468;48.838;9.330;2022-10-26T13:12:14;98691.03;;;20.47;67.25
55604;BME280;41468;48.838;9.330;2022-10-26T13:14:55;98694.22;;;20.46;68.81
55604;BME280;41468;48.838;9.330;2022-10-26T13:17:27;98704.22;;;20.43;70.13
55604;BME280;41468;48.838;9.330;2022-10-26T13:19:59;98707.97;;;20.33;69.93
55604;BME280;41468;48.838;9.330;2022-10-26T13:22:29;98704.06;;;20.30;69.51
55604;BME280;41468;48.838;9.330;2022-10-26T13:25:04;98711.56;;;20.13;67.25
55604;BME280;41468;48.838;9.330;2022-10-26T13:27:42;98705.78;;;20.24;67.20
55604;BME280;41468;48.838;9.330;2022-10-26T13:30:34;98708.44;;;20.11;68.17
55604;BME280;41468;48.838;9.330;2022-10-26T13:33:16;98703.84;;;20.05;67.67
55604;BME280;41468;48.838;9.330;2022-10-26T13:35:46;98701.69;;;19.92;68.78
55604;BME280;41468;48.838;9.330;2022-10-26T13:38:19;98705.63;;;19.95;68.99
55604;BME280;41468;48.838;9.330;2022-10-26T13:41:05;98703.28;;;19.93;69.00
55604;BME280;41468;48.838;9.330;2022-10-26T13:43:36;98706.63;;;20.05;69.11
55604;BME280;41468;48.838;9.330;2022-10-26T13:46:06;98711.03;;;20.02;69.45
55604;BME280;41468;48.838;9.330;2022-10-26T13:48:46;98713.81;;;20.02;67.87
55604;BME280;41468;48.838;9.330;2022-10-26T13:51:19;98724.03;;;20.05;68.73